Time,TemperatureF,DewpointF,PressureIn,WindDirection,WindDirectionDegrees,WindSpeedMPH,WindSpeedGustMPH,Humidity,HourlyPrecipIn,Conditions,Clouds,dailyrainin,SolarRadiationWatts/m^2,SoftwareType,DateUTC
2013-10-28 00:22:00,40.0,34.0,-100.00,NNW,343,8.0,22.0,80,0.00,,,0.00,0.000000,,2013-10-28 07:22:00,
2013-10-28 00:32:00,40.0,34.0,-100.00,NNW,343,8.0,22.0,80,0.00,,,0.00,0.000000,,2013-10-28 07:32:00,
2013-10-28 00:42:00,40.0,34.0,-100.00,NNW,343,8.0,22.0,80,0.00,,,0.00,0.000000,,2013-10-28 07:42:00,
2013-10-28 00:52:00,40.0,34.0,-100.00,NNW,343,8.0,22.0,80,0.00,,,0.00,0.000000,,2013-10-28 07:52:00,
2013-10-28 01:22:00,39.0,35.0,-100.00,NNW,343,8.0,21.0,86,0.04,,,0.04,0.000000,,2013-10-28 08:22:00,
2013-10-28 01:32:00,39.0,35.0,-100.00,NNW,343,8.0,21.0,86,0.04,,,0.04,0.000000,,2013-10-28 08:32:00,
2013-10-28 01:42:00,39.0,35.0,-100.00,NNW,343,8.0,21.0,86,0.04,,,0.04,0.000000,,2013-10-28 08:42:00,
2013-10-28 01:51:00,39.0,35.0,-100.00,NNW,343,8.0,21.0,86,0.04,,,0.04,0.000000,,2013-10-28 08:51:00,
2013-10-28 02:21:00,38.0,34.0,-100.00,North,352,7.0,21.0,86,0.03,,,0.07,0.000000,,2013-10-28 09:21:00,
2013-10-28 02:33:00,38.0,34.0,-100.00,North,352,7.0,21.0,86,0.03,,,0.07,0.000000,,2013-10-28 09:33:00,
2013-10-28 02:43:00,38.0,34.0,-100.00,North,352,7.0,21.0,86,0.03,,,0.07,0.000000,,2013-10-28 09:43:00,
2013-10-28 02:53:00,38.0,34.0,-100.00,North,352,7.0,21.0,86,0.03,,,0.07,0.000000,,2013-10-28 09:53:00,
2013-10-28 03:23:00,38.0,34.0,-100.00,North,351,8.0,23.0,86,0.04,,,0.11,0.000000,,2013-10-28 10:23:00,
2013-10-28 03:33:00,38.0,34.0,-100.00,North,351,8.0,23.0,86,0.04,,,0.11,0.000000,,2013-10-28 10:33:00,
2013-10-28 03:43:00,38.0,34.0,-100.00,North,351,8.0,23.0,86,0.04,,,0.11,0.000000,,2013-10-28 10:43:00,
2013-10-28 03:53:00,38.0,34.0,-100.00,North,351,8.0,23.0,86,0.04,,,0.11,0.000000,,2013-10-28 10:53:00,
2013-10-28 04:22:00,36.0,33.0,-100.00,NNW,342,6.0,17.0,90,0.14,,,0.25,0.000000,,2013-10-28 11:22:00,
2013-10-28 04:33:00,36.0,33.0,-100.00,NNW,342,6.0,17.0,90,0.14,,,0.25,0.000000,,2013-10-28 11:33:00,
2013-10-28 04:42:00,36.0,33.0,-100.00,NNW,342,6.0,17.0,90,0.14,,,0.25,0.000000,,2013-10-28 11:42:00,
2013-10-28 04:52:00,36.0,33.0,-100.00,NNW,342,6.0,17.0,90,0.14,,,0.25,0.000000,,2013-10-28 11:52:00,
2013-10-28 05:21:00,35.0,33.0,-100.00,SW,226,1.0,11.0,94,0.08,,,0.33,0.000000,,2013-10-28 12:21:00,
2013-10-28 05:32:00,35.0,33.0,-100.00,SW,226,1.0,11.0,94,0.08,,,0.33,0.000000,,2013-10-28 12:32:00,
2013-10-28 05:42:00,35.0,33.0,-100.00,SW,226,1.0,11.0,94,0.08,,,0.33,0.000000,,2013-10-28 12:42:00,
2013-10-28 05:52:00,35.0,33.0,-100.00,SW,226,1.0,11.0,94,0.08,,,0.33,0.000000,,2013-10-28 12:52:00,
2013-10-28 06:22:00,36.0,34.0,-100.00,NNW,340,7.0,16.0,92,0.07,,,0.40,0.000000,,2013-10-28 13:22:00,
2013-10-28 06:32:00,36.0,34.0,-100.00,NNW,340,7.0,16.0,92,0.07,,,0.40,0.000000,,2013-10-28 13:32:00,
2013-10-28 06:42:00,36.0,34.0,-100.00,NNW,340,7.0,16.0,92,0.07,,,0.40,0.000000,,2013-10-28 13:42:00,
2013-10-28 06:52:00,36.0,34.0,-100.00,NNW,340,7.0,16.0,92,0.07,,,0.40,0.000000,,2013-10-28 13:52:00,
2013-10-28 07:21:00,37.0,34.0,-100.00,NNW,344,6.0,18.0,90,0.06,,,0.46,0.000000,,2013-10-28 14:21:00,
2013-10-28 07:32:00,37.0,34.0,-100.00,NNW,344,6.0,18.0,90,0.06,,,0.46,0.000000,,2013-10-28 14:32:00,
2013-10-28 07:41:00,37.0,34.0,-100.00,NNW,344,6.0,18.0,90,0.06,,,0.46,0.000000,,2013-10-28 14:41:00,
2013-10-28 07:52:00,37.0,34.0,-100.00,NNW,344,6.0,18.0,90,0.06,,,0.46,0.000000,,2013-10-28 14:52:00,
2013-10-28 08:21:00,38.0,35.0,-100.00,North,351,8.0,19.0,90,0.05,,,0.51,1.000000,,2013-10-28 15:21:00,
2013-10-28 08:33:00,38.0,35.0,-100.00,North,351,8.0,19.0,90,0.05,,,0.51,1.000000,,2013-10-28 15:33:00,
2013-10-28 08:43:00,38.0,35.0,-100.00,North,351,8.0,19.0,90,0.05,,,0.51,1.000000,,2013-10-28 15:43:00,
2013-10-28 08:53:00,38.0,35.0,-100.00,North,351,8.0,19.0,90,0.05,,,0.51,1.000000,,2013-10-28 15:53:00,
2013-10-28 09:23:00,38.0,35.0,-100.00,NNW,341,10.0,25.0,89,0.06,,,0.57,38.000000,,2013-10-28 16:23:00,
2013-10-28 09:32:00,38.0,35.0,-100.00,NNW,341,10.0,25.0,89,0.06,,,0.57,38.000000,,2013-10-28 16:32:00,
2013-10-28 09:43:00,38.0,35.0,-100.00,NNW,341,10.0,25.0,89,0.06,,,0.57,38.000000,,2013-10-28 16:43:00,
2013-10-28 09:53:00,38.0,35.0,-100.00,NNW,341,10.0,25.0,89,0.06,,,0.57,38.000000,,2013-10-28 16:53:00,
2013-10-28 10:22:00,39.0,36.0,-100.00,NNW,339,6.0,28.0,89,0.03,,,0.60,77.000000,,2013-10-28 17:22:00,
2013-10-28 10:33:00,39.0,36.0,-100.00,NNW,339,6.0,28.0,89,0.03,,,0.60,77.000000,,2013-10-28 17:33:00,
2013-10-28 10:42:00,39.0,36.0,-100.00,NNW,339,6.0,28.0,89,0.03,,,0.60,77.000000,,2013-10-28 17:42:00,
2013-10-28 10:52:00,39.0,36.0,-100.00,NNW,339,6.0,28.0,89,0.03,,,0.60,77.000000,,2013-10-28 17:52:00,
2013-10-28 11:21:00,39.0,37.0,-100.00,South,188,1.0,15.0,93,0.02,,,0.62,33.000000,,2013-10-28 18:21:00,
2013-10-28 11:32:00,39.0,37.0,-100.00,South,188,1.0,15.0,93,0.02,,,0.62,33.000000,,2013-10-28 18:32:00,
2013-10-28 11:42:00,39.0,37.0,-100.00,South,188,1.0,15.0,93,0.02,,,0.62,33.000000,,2013-10-28 18:42:00,
2013-10-28 11:52:00,39.0,37.0,-100.00,South,188,1.0,15.0,93,0.02,,,0.62,33.000000,,2013-10-28 18:52:00,
2013-10-28 12:21:00,41.0,38.0,-100.00,NW,318,5.0,14.0,90,0.00,,,0.62,148.000000,,2013-10-28 19:21:00,
2013-10-28 12:33:00,41.0,38.0,-100.00,NW,318,5.0,14.0,90,0.00,,,0.62,148.000000,,2013-10-28 19:33:00,
2013-10-28 12:42:00,41.0,38.0,-100.00,NW,318,5.0,14.0,90,0.00,,,0.62,148.000000,,2013-10-28 19:42:00,
2013-10-28 12:52:00,41.0,38.0,-100.00,NW,318,5.0,14.0,90,0.00,,,0.62,148.000000,,2013-10-28 19:52:00,
2013-10-28 13:21:00,42.0,38.0,-100.00,NNW,330,5.0,13.0,86,0.00,,,0.62,133.000000,,2013-10-28 20:21:00,
2013-10-28 13:32:00,42.0,38.0,-100.00,NNW,330,5.0,13.0,86,0.00,,,0.62,133.000000,,2013-10-28 20:32:00,
2013-10-28 13:42:00,42.0,38.0,-100.00,NNW,330,5.0,13.0,86,0.00,,,0.62,133.000000,,2013-10-28 20:42:00,
2013-10-28 13:52:00,42.0,38.0,-100.00,NNW,330,5.0,13.0,86,0.00,,,0.62,133.000000,,2013-10-28 20:52:00,
2013-10-28 14:21:00,43.0,39.0,-100.00,NW,314,5.0,17.0,85,0.00,,,0.62,119.000000,,2013-10-28 21:21:00,
2013-10-28 14:34:00,43.0,39.0,-100.00,NW,314,5.0,17.0,85,0.00,,,0.62,119.000000,,2013-10-28 21:34:00,
2013-10-28 14:43:00,43.0,39.0,-100.00,NW,314,5.0,17.0,85,0.00,,,0.62,119.000000,,2013-10-28 21:43:00,
2013-10-28 14:53:00,43.0,39.0,-100.00,NW,314,5.0,17.0,85,0.00,,,0.62,119.000000,,2013-10-28 21:53:00,
2013-10-28 15:23:00,43.0,37.0,-100.00,NNW,347,5.0,12.0,80,0.00,,,0.62,81.000000,,2013-10-28 22:23:00,
2013-10-28 15:34:00,43.0,37.0,-100.00,NNW,347,5.0,12.0,80,0.00,,,0.62,81.000000,,2013-10-28 22:34:00,
2013-10-28 15:43:00,43.0,37.0,-100.00,NNW,347,5.0,12.0,80,0.00,,,0.62,81.000000,,2013-10-28 22:43:00,
2013-10-28 15:53:00,43.0,37.0,-100.00,NNW,347,5.0,12.0,80,0.00,,,0.62,81.000000,,2013-10-28 22:53:00,
2013-10-28 16:22:00,43.0,38.0,-100.00,WNW,301,5.0,13.0,82,0.00,,,0.62,91.000000,,2013-10-28 23:22:00,
2013-10-28 16:34:00,43.0,38.0,-100.00,WNW,301,5.0,13.0,82,0.00,,,0.62,91.000000,,2013-10-28 23:34:00,
2013-10-28 16:42:00,43.0,38.0,-100.00,WNW,301,5.0,13.0,82,0.00,,,0.62,91.000000,,2013-10-28 23:42:00,
2013-10-28 16:52:00,43.0,38.0,-100.00,WNW,301,5.0,13.0,82,0.00,,,0.62,91.000000,,2013-10-28 23:52:00,
2013-10-28 17:21:00,43.0,38.0,-100.00,WNW,302,5.0,14.0,81,0.00,,,0.62,96.000000,,2013-10-29 00:21:00,
2013-10-28 17:32:00,43.0,38.0,-100.00,WNW,302,5.0,14.0,81,0.00,,,0.62,96.000000,,2013-10-29 00:32:00,
2013-10-28 17:41:00,43.0,38.0,-100.00,WNW,302,5.0,14.0,81,0.00,,,0.62,96.000000,,2013-10-29 00:41:00,
2013-10-28 17:52:00,43.0,38.0,-100.00,WNW,302,5.0,14.0,81,0.00,,,0.62,96.000000,,2013-10-29 00:52:00,
2013-10-28 18:21:00,42.0,35.0,-100.00,NW,312,4.0,10.0,77,0.00,,,0.62,29.000000,,2013-10-29 01:21:00,
2013-10-28 18:31:00,42.0,35.0,-100.00,NW,312,4.0,10.0,77,0.00,,,0.62,29.000000,,2013-10-29 01:31:00,
2013-10-28 18:42:00,42.0,35.0,-100.00,NW,312,4.0,10.0,77,0.00,,,0.62,29.000000,,2013-10-29 01:42:00,
2013-10-28 18:52:00,42.0,35.0,-100.00,NW,312,4.0,10.0,77,0.00,,,0.62,29.000000,,2013-10-29 01:52:00,
2013-10-28 19:21:00,41.0,36.0,-100.00,NW,307,3.0,10.0,83,0.00,,,0.62,4.000000,,2013-10-29 02:21:00,
2013-10-28 19:34:00,41.0,36.0,-100.00,NW,307,3.0,10.0,83,0.00,,,0.62,4.000000,,2013-10-29 02:34:00,
2013-10-28 19:44:00,41.0,36.0,-100.00,NW,307,3.0,10.0,83,0.00,,,0.62,4.000000,,2013-10-29 02:44:00,
2013-10-28 19:53:00,41.0,36.0,-100.00,NW,307,3.0,10.0,83,0.00,,,0.62,4.000000,,2013-10-29 02:53:00,
2013-10-28 19:54:00,41.0,36.0,-100.00,NNW,348,5.0,12.0,81,0.00,,,0.62,0.000000,,2013-10-29 02:54:00,
2013-10-28 20:27:00,41.0,36.0,-100.00,NNW,348,5.0,12.0,81,0.00,,,0.62,0.000000,,2013-10-29 03:27:00,
2013-10-28 20:40:00,-999.0,-99.9,-100.00,NNW,348,5.0,12.0,81,0.00,,,0.62,0.000000,,2013-10-29 03:40:00,
2013-10-28 20:47:00,41.0,36.0,-100.00,NNW,348,5.0,12.0,81,0.00,,,0.62,0.000000,,2013-10-29 03:47:00,
2013-10-28 20:54:00,41.0,37.0,-100.00,North,3,2.0,8.0,86,0.00,,,0.62,0.000000,,2013-10-29 03:54:00,
2013-10-28 21:24:00,41.0,37.0,-100.00,North,3,2.0,8.0,86,0.00,,,0.62,0.000000,,2013-10-29 04:24:00,
2013-10-28 21:39:00,41.0,37.0,-100.00,North,3,2.0,8.0,86,0.00,,,0.62,0.000000,,2013-10-29 04:39:00,
2013-10-28 22:22:00,41.0,36.0,-100.00,North,353,1.0,4.0,82,0.00,,,0.62,0.000000,,2013-10-29 05:22:00,
2013-10-28 22:33:00,41.0,36.0,-100.00,North,353,1.0,4.0,82,0.00,,,0.62,0.000000,,2013-10-29 05:33:00,
2013-10-28 22:45:00,41.0,36.0,-100.00,North,353,1.0,4.0,82,0.00,,,0.62,0.000000,,2013-10-29 05:45:00,
2013-10-28 22:52:00,41.0,36.0,-100.00,North,353,1.0,4.0,82,0.00,,,0.62,0.000000,,2013-10-29 05:52:00,
2013-10-28 23:25:00,40.0,34.0,-100.00,NNW,336,2.0,7.0,80,0.00,,,0.62,0.000000,,2013-10-29 06:25:00,
2013-10-28 23:34:00,40.0,34.0,-100.00,NNW,336,2.0,7.0,80,0.00,,,0.62,0.000000,,2013-10-29 06:34:00,
2013-10-28 23:43:00,40.0,34.0,-100.00,NNW,336,2.0,7.0,80,0.00,,,0.62,0.000000,,2013-10-29 06:43:00,
2013-10-28 23:52:00,40.0,34.0,-100.00,NNW,336,2.0,7.0,80,0.00,,,0.62,0.000000,,2013-10-29 06:52:00,
2013-10-28 23:54:00,38.0,35.0,-100.00,WNW,294,0.0,4.0,88,0.01,,,0.63,0.000000,,2013-10-29 06:54:00,